Time;durP1;ratioP1;P1;durP2;ratioP2;P2;SDS_P1;SDS_P2;PMS_P1;PMS_P2;Temp;Humidity;BMP_temperature;BMP_pressure;BME280_temperature;BME280_humidity;BME280_pressure;Samples;Min_cycle;Max_cycle;Signal;HPM_P1;HPM_P2
2023/04/24 00:01:12;;;;;;;;;;;9.90;99.90;;;;;;5079017;28;20044;-80
2023/04/24 00:03:38;;;;;;;;;;;9.90;99.90;;;;;;5062807;28;20256;-80
2023/04/24 00:06:05;;;;;;;;;;;9.90;99.90;;;;;;5084134;28;19929;-80
2023/04/24 00:08:30;;;;;;;;;;;9.90;99.90;;;;;;5081371;28;19975;-80
2023/04/24 00:10:56;;;;;;;;;;;9.90;99.90;;;;;;5066950;28;19929;-80
2023/04/24 00:13:22;;;;;;;;;;;9.90;99.90;;;;;;5063080;28;19928;-80
2023/04/24 00:15:47;;;;;;;;;;;9.90;99.90;;;;;;5045239;28;19925;-80
2023/04/24 00:18:13;;;;;;;;;;;9.90;99.90;;;;;;5066888;28;20364;-80
2023/04/24 00:20:39;;;;;;;;;;;9.90;99.90;;;;;;5068753;28;19925;-80
2023/04/24 00:23:05;;;;;;;;;;;9.90;99.90;;;;;;5095562;28;19925;-80
2023/04/24 00:25:30;;;;;;;;;;;9.90;99.90;;;;;;5063886;28;19939;-80
2023/04/24 00:27:56;;;;;;;;;;;9.90;99.90;;;;;;5052212;28;19932;-80
2023/04/24 00:30:21;;;;;;;;;;;10.00;99.90;;;;;;5039248;28;19936;-80
2023/04/24 00:32:47;;;;;;;;;;;10.00;99.90;;;;;;5066784;28;19924;-80
2023/04/24 00:35:12;;;;;;;;;;;10.00;99.90;;;;;;5050057;28;19967;-80
2023/04/24 00:37:38;;;;;;;;;;;10.00;99.90;;;;;;5078789;28;19928;-80
2023/04/24 00:40:04;;;;;;;;;;;10.10;99.90;;;;;;5101149;28;19999;-80
2023/04/24 00:42:29;;;;;;;;;;;10.10;99.90;;;;;;5059600;28;20366;-80
2023/04/24 00:44:56;;;;;;;;;;;10.10;99.90;;;;;;5078910;28;19932;-80
2023/04/24 00:47:23;;;;;;;;;;;10.10;99.90;;;;;;5061722;28;19924;-80
2023/04/24 00:49:49;;;;;;;;;;;10.20;99.90;;;;;;5095166;28;19924;-80
2023/04/24 00:52:17;;;;;;;;;;;10.10;99.90;;;;;;5078824;28;19947;-80
2023/04/24 00:54:46;;;;;;;;;;;10.20;99.90;;;;;;5065735;28;19971;-81
2023/04/24 00:57:13;;;;;;;;;;;10.20;99.90;;;;;;5094914;28;19928;-80
2023/04/24 00:59:40;;;;;;;;;;;10.20;99.90;;;;;;5094593;28;19928;-79
2023/04/24 01:02:07;;;;;;;;;;;10.20;99.90;;;;;;5045473;28;19951;-80
2023/04/24 01:04:32;;;;;;;;;;;10.20;99.90;;;;;;5078001;28;19925;-79
2023/04/24 01:06:58;;;;;;;;;;;10.20;99.90;;;;;;5094655;28;19993;-79
2023/04/24 01:09:24;;;;;;;;;;;10.20;99.90;;;;;;5094937;28;19986;-79
2023/04/24 01:11:50;;;;;;;;;;;10.20;99.90;;;;;;5094411;28;19936;-80
2023/04/24 01:14:16;;;;;;;;;;;10.20;99.90;;;;;;5082633;28;19983;-79
2023/04/24 01:16:41;;;;;;;;;;;10.20;99.90;;;;;;5058837;28;19924;-79
2023/04/24 01:19:07;;;;;;;;;;;10.20;99.90;;;;;;5077907;28;19931;-79
2023/04/24 01:21:37;;;;;;;;;;;10.20;99.90;;;;;;5078559;28;19972;-80
2023/04/24 01:24:05;;;;;;;;;;;10.10;99.90;;;;;;5094737;28;19928;-80
2023/04/24 01:26:31;;;;;;;;;;;10.10;99.90;;;;;;5061259;28;19978;-79
2023/04/24 01:28:57;;;;;;;;;;;10.10;99.90;;;;;;5094402;28;19928;-79
2023/04/24 01:31:23;;;;;;;;;;;10.10;99.90;;;;;;5094292;28;20015;-79
2023/04/24 01:33:49;;;;;;;;;;;10.00;99.90;;;;;;5093653;28;19936;-79
2023/04/24 01:36:16;;;;;;;;;;;10.00;99.90;;;;;;5077619;28;19924;-80
2023/04/24 01:38:41;;;;;;;;;;;10.00;99.90;;;;;;5077215;28;19942;-79
2023/04/24 01:41:07;;;;;;;;;;;10.00;99.90;;;;;;5093065;28;20015;-79
2023/04/24 01:43:33;;;;;;;;;;;9.90;99.90;;;;;;5077214;28;20385;-79
2023/04/24 01:45:58;;;;;;;;;;;9.90;99.90;;;;;;5060633;28;20341;-80
2023/04/24 01:48:24;;;;;;;;;;;9.80;99.90;;;;;;5077360;28;19984;-80
2023/04/24 01:50:49;;;;;;;;;;;9.80;99.90;;;;;;5060124;28;19983;-79
2023/04/24 01:53:15;;;;;;;;;;;9.80;99.90;;;;;;5077268;28;19998;-80
2023/04/24 01:55:41;;;;;;;;;;;9.80;99.90;;;;;;5093363;28;20466;-80
2023/04/24 01:58:06;;;;;;;;;;;9.70;99.90;;;;;;5093482;28;20024;-80
2023/04/24 02:00:32;;;;;;;;;;;9.70;99.90;;;;;;5094669;28;19931;-80
2023/04/24 02:02:58;;;;;;;;;;;9.70;99.90;;;;;;5090658;28;20013;-80
2023/04/24 02:05:23;;;;;;;;;;;9.70;99.90;;;;;;5073116;28;19943;-79
2023/04/24 02:07:49;;;;;;;;;;;9.70;99.90;;;;;;5060009;28;20060;-79
2023/04/24 02:10:14;;;;;;;;;;;9.70;99.90;;;;;;5073753;28;19970;-79
2023/04/24 02:12:40;;;;;;;;;;;9.70;99.90;;;;;;5078977;28;19983;-79
2023/04/24 02:15:06;;;;;;;;;;;9.70;99.90;;;;;;5073054;28;19932;-79
2023/04/24 02:17:32;;;;;;;;;;;9.70;99.90;;;;;;5093810;28;19924;-79
2023/04/24 02:19:57;;;;;;;;;;;9.70;99.90;;;;;;5093319;28;19924;-79
2023/04/24 02:22:23;;;;;;;;;;;9.70;99.90;;;;;;5077201;28;19925;-79
2023/04/24 02:24:48;;;;;;;;;;;9.60;99.90;;;;;;5093612;28;19925;-80
2023/04/24 02:27:14;;;;;;;;;;;9.70;99.90;;;;;;5076743;28;19979;-79
2023/04/24 02:29:40;;;;;;;;;;;9.70;99.90;;;;;;5076423;28;19972;-79
2023/04/24 02:32:05;;;;;;;;;;;9.60;99.90;;;;;;5095509;28;20321;-79
2023/04/24 02:34:31;;;;;;;;;;;9.70;99.90;;;;;;5093162;28;20023;-79
2023/04/24 02:36:56;;;;;;;;;;;9.70;99.90;;;;;;5076651;28;19933;-80
2023/04/24 02:39:22;;;;;;;;;;;9.70;99.90;;;;;;5077418;28;20321;-80
2023/04/24 02:41:48;;;;;;;;;;;9.60;99.90;;;;;;5092293;28;19925;-80
2023/04/24 02:44:13;;;;;;;;;;;9.60;99.90;;;;;;5092237;28;19992;-80
2023/04/24 02:46:41;;;;;;;;;;;9.70;99.90;;;;;;5039410;28;19929;-80
2023/04/24 02:49:06;;;;;;;;;;;9.70;99.90;;;;;;5092288;28;19928;-80
2023/04/24 02:51:32;;;;;;;;;;;9.60;99.90;;;;;;5088762;28;19991;-80
2023/04/24 02:53:57;;;;;;;;;;;9.60;99.90;;;;;;5047298;28;19933;-80
2023/04/24 02:56:23;;;;;;;;;;;9.60;99.90;;;;;;5070591;28;19946;-79
2023/04/24 02:58:48;;;;;;;;;;;9.60;99.90;;;;;;5083479;28;19924;-80
2023/04/24 03:01:14;;;;;;;;;;;9.60;99.90;;;;;;5100283;28;19925;-79
2023/04/24 03:03:40;;;;;;;;;;;9.60;99.90;;;;;;5099563;28;19925;-79
2023/04/24 03:06:05;;;;;;;;;;;9.60;99.90;;;;;;5082933;28;19932;-80
2023/04/24 03:08:34;;;;;;;;;;;9.60;99.90;;;;;;5044298;28;19925;-80
2023/04/24 03:11:00;;;;;;;;;;;9.60;99.90;;;;;;5079116;28;19925;-80
2023/04/24 03:13:25;;;;;;;;;;;9.60;99.90;;;;;;5078898;28;20127;-80
2023/04/24 03:15:51;;;;;;;;;;;9.60;99.90;;;;;;5098985;28;19954;-80
2023/04/24 03:18:17;;;;;;;;;;;9.60;99.90;;;;;;5070001;28;20015;-79
2023/04/24 03:20:45;;;;;;;;;;;9.60;99.90;;;;;;5082796;28;19932;-79
2023/04/24 03:23:10;;;;;;;;;;;9.60;99.90;;;;;;5099660;28;19925;-80
2023/04/24 03:25:36;;;;;;;;;;;9.60;99.90;;;;;;5099359;28;19935;-80
2023/04/24 03:28:01;;;;;;;;;;;9.60;99.90;;;;;;5082161;28;19925;-80
2023/04/24 03:30:27;;;;;;;;;;;9.60;99.90;;;;;;5081366;28;19924;-79
2023/04/24 03:32:52;;;;;;;;;;;9.60;99.90;;;;;;5064039;28;19925;-80
2023/04/24 03:35:18;;;;;;;;;;;9.50;99.90;;;;;;5099115;28;20439;-80
2023/04/24 03:37:44;;;;;;;;;;;9.50;99.90;;;;;;5098010;28;19928;-80
2023/04/24 03:40:09;;;;;;;;;;;9.50;99.90;;;;;;5098672;28;19929;-80
2023/04/24 03:42:35;;;;;;;;;;;9.50;99.90;;;;;;5084571;28;19924;-80
2023/04/24 03:45:00;;;;;;;;;;;9.50;99.90;;;;;;5067441;28;19924;-80
2023/04/24 03:47:26;;;;;;;;;;;9.50;99.90;;;;;;5081462;28;19960;-80
2023/04/24 03:49:52;;;;;;;;;;;9.50;99.90;;;;;;5081407;28;20283;-80
2023/04/24 03:52:17;;;;;;;;;;;9.50;99.90;;;;;;5098399;28;19928;-80
2023/04/24 03:54:43;;;;;;;;;;;9.50;99.90;;;;;;5100626;28;20019;-80
2023/04/24 03:57:08;;;;;;;;;;;9.50;99.90;;;;;;5049609;28;19925;-80
2023/04/24 03:59:34;;;;;;;;;;;9.50;99.90;;;;;;5082011;28;19932;-80
2023/04/24 04:01:59;;;;;;;;;;;9.50;99.90;;;;;;5081248;28;19925;-80
2023/04/24 04:04:25;;;;;;;;;;;9.50;99.90;;;;;;5038513;28;19980;-80
2023/04/24 04:06:51;;;;;;;;;;;9.50;99.90;;;;;;5078641;28;19963;-80
2023/04/24 04:09:17;;;;;;;;;;;9.50;99.90;;;;;;5074379;28;19925;-79
2023/04/24 04:11:43;;;;;;;;;;;9.50;99.90;;;;;;5078058;28;19946;-80
2023/04/24 04:14:08;;;;;;;;;;;9.50;99.90;;;;;;5085220;28;19925;-80
2023/04/24 04:16:36;;;;;;;;;;;9.50;99.90;;;;;;5076302;28;20019;-80
2023/04/24 04:19:02;;;;;;;;;;;9.50;99.90;;;;;;5041250;28;19986;-80
2023/04/24 04:21:28;;;;;;;;;;;9.50;99.90;;;;;;5092096;28;19940;-81
2023/04/24 04:23:54;;;;;;;;;;;9.50;99.90;;;;;;5049691;28;19928;-81
2023/04/24 04:26:20;;;;;;;;;;;9.50;99.90;;;;;;5048113;28;19924;-80
2023/04/24 04:28:47;;;;;;;;;;;9.40;99.90;;;;;;5073220;28;19987;-81
2023/04/24 04:31:13;;;;;;;;;;;9.40;99.90;;;;;;5061897;28;19924;-81
2023/04/24 04:33:39;;;;;;;;;;;9.40;99.90;;;;;;5078370;28;19928;-80
2023/04/24 04:36:05;;;;;;;;;;;9.40;99.90;;;;;;5078925;28;19924;-80
2023/04/24 04:38:30;;;;;;;;;;;9.40;99.90;;;;;;5078406;28;19931;-81
2023/04/24 04:40:56;;;;;;;;;;;9.30;99.90;;;;;;5095425;28;20435;-81
2023/04/24 04:43:23;;;;;;;;;;;9.30;99.90;;;;;;5095707;28;19935;-81
2023/04/24 04:45:51;;;;;;;;;;;9.20;99.90;;;;;;5078282;28;19946;-80
2023/04/24 04:48:17;;;;;;;;;;;9.30;99.90;;;;;;5077962;28;19987;-81
2023/04/24 04:50:43;;;;;;;;;;;9.20;99.90;;;;;;5078351;28;19951;-81
2023/04/24 04:53:08;;;;;;;;;;;9.20;99.90;;;;;;5095024;28;19931;-81
2023/04/24 04:55:34;;;;;;;;;;;9.20;99.90;;;;;;5078156;28;19970;-81
2023/04/24 04:58:00;;;;;;;;;;;9.20;99.90;;;;;;5078243;28;20302;-81
2023/04/24 05:00:27;;;;;;;;;;;9.20;99.90;;;;;;5078163;28;19928;-81
2023/04/24 05:02:52;;;;;;;;;;;9.20;99.90;;;;;;5094820;28;19925;-82
2023/04/24 05:05:18;;;;;;;;;;;9.20;99.90;;;;;;5095133;28;19939;-82
2023/04/24 05:07:44;;;;;;;;;;;9.30;99.90;;;;;;5094661;28;20345;-82
2023/04/24 05:10:10;;;;;;;;;;;9.30;99.90;;;;;;5061541;28;19937;-82
2023/04/24 05:12:36;;;;;;;;;;;9.30;99.90;;;;;;5094384;28;19932;-82
2023/04/24 05:15:01;;;;;;;;;;;9.30;99.90;;;;;;5062441;28;19935;-83
2023/04/24 05:17:27;;;;;;;;;;;9.30;99.90;;;;;;5094674;28;19924;-82
2023/04/24 05:19:52;;;;;;;;;;;9.30;99.90;;;;;;5060715;28;19924;-82
2023/04/24 05:22:20;;;;;;;;;;;9.30;99.90;;;;;;5078155;28;19928;-82
2023/04/24 05:24:46;;;;;;;;;;;9.30;99.90;;;;;;5061247;28;19994;-81
2023/04/24 05:27:12;;;;;;;;;;;9.40;99.90;;;;;;5094947;28;19925;-81
2023/04/24 05:29:37;;;;;;;;;;;9.40;99.90;;;;;;5076662;28;20272;-81
2023/04/24 05:32:03;;;;;;;;;;;9.40;99.90;;;;;;5093981;28;19982;-81
2023/04/24 05:34:29;;;;;;;;;;;9.50;99.90;;;;;;5077533;28;20416;-81
2023/04/24 05:36:54;;;;;;;;;;;9.50;99.90;;;;;;5092986;28;20286;-81
2023/04/24 05:39:20;;;;;;;;;;;9.50;99.90;;;;;;5076935;28;19925;-79
2023/04/24 05:41:46;;;;;;;;;;;9.50;99.90;;;;;;5077461;28;19936;-78
2023/04/24 05:44:11;;;;;;;;;;;9.50;99.90;;;;;;5077391;28;19980;-80
2023/04/24 05:46:37;;;;;;;;;;;9.70;99.90;;;;;;5043874;28;19924;-80
2023/04/24 05:49:02;;;;;;;;;;;9.70;99.90;;;;;;5094129;28;19929;-79
2023/04/24 05:51:28;;;;;;;;;;;9.70;99.90;;;;;;5069917;28;19925;-78
2023/04/24 05:53:54;;;;;;;;;;;9.80;99.90;;;;;;5076893;28;19974;-76
2023/04/24 05:56:20;;;;;;;;;;;9.80;99.90;;;;;;5076862;28;19924;-76
2023/04/24 05:58:46;;;;;;;;;;;9.80;99.90;;;;;;5076629;28;19925;-75
2023/04/24 06:01:12;;;;;;;;;;;9.90;99.90;;;;;;5077097;28;20217;-75
2023/04/24 06:03:39;;;;;;;;;;;9.80;99.90;;;;;;5076327;28;19951;-75
2023/04/24 06:06:05;;;;;;;;;;;9.80;99.90;;;;;;5093814;28;19970;-76
2023/04/24 06:08:31;;;;;;;;;;;9.80;99.90;;;;;;5059852;28;19930;-76
2023/04/24 06:10:56;;;;;;;;;;;9.80;99.90;;;;;;5059822;28;20015;-76
2023/04/24 06:13:22;;;;;;;;;;;9.80;99.90;;;;;;5091304;28;19970;-75
2023/04/24 06:15:47;;;;;;;;;;;9.80;99.90;;;;;;5085988;28;20450;-75
2023/04/24 06:18:13;;;;;;;;;;;9.80;99.90;;;;;;5060247;28;19990;-75
2023/04/24 06:20:39;;;;;;;;;;;9.80;99.90;;;;;;5093442;28;20017;-75
2023/04/24 06:23:05;;;;;;;;;;;9.90;99.90;;;;;;5094603;28;19936;-75
2023/04/24 06:25:30;;;;;;;;;;;9.90;99.90;;;;;;5092745;28;19924;-75
2023/04/24 06:27:56;;;;;;;;;;;9.90;99.90;;;;;;5094015;28;19928;-75
2023/04/24 06:30:22;;;;;;;;;;;9.90;99.90;;;;;;5044236;28;19924;-74
2023/04/24 06:32:48;;;;;;;;;;;9.90;99.90;;;;;;5076558;28;19928;-75
2023/04/24 06:35:13;;;;;;;;;;;9.90;99.90;;;;;;5075145;28;19924;-75
2023/04/24 06:37:39;;;;;;;;;;;9.90;99.90;;;;;;5075226;28;20530;-74
2023/04/24 06:40:05;;;;;;;;;;;9.90;99.90;;;;;;5076498;28;19925;-74
2023/04/24 06:42:31;;;;;;;;;;;9.90;99.90;;;;;;5075444;28;19924;-75
2023/04/24 06:44:57;;;;;;;;;;;9.90;99.90;;;;;;5085513;28;19928;-74
2023/04/24 06:47:22;;;;;;;;;;;9.90;99.90;;;;;;5077242;28;19928;-74
2023/04/24 06:49:48;;;;;;;;;;;9.90;99.90;;;;;;5093329;28;19925;-75
2023/04/24 06:52:13;;;;;;;;;;;9.90;99.90;;;;;;5076630;28;20014;-75
2023/04/24 06:54:39;;;;;;;;;;;9.90;99.90;;;;;;5077543;28;19924;-75
2023/04/24 06:57:04;;;;;;;;;;;9.90;99.90;;;;;;5076515;28;20310;-67
2023/04/24 06:59:30;;;;;;;;;;;9.90;99.90;;;;;;5083855;28;19934;-68
2023/04/24 07:01:56;;;;;;;;;;;10.00;99.90;;;;;;5079892;28;19928;-68
2023/04/24 07:04:22;;;;;;;;;;;9.90;99.90;;;;;;5103376;28;19924;-68
2023/04/24 07:06:48;;;;;;;;;;;10.00;99.90;;;;;;5102664;28;19970;-68
2023/04/24 07:09:15;;;;;;;;;;;10.00;99.90;;;;;;5072318;28;19924;-67
2023/04/24 07:11:41;;;;;;;;;;;10.00;99.90;;;;;;5088511;28;19924;-68
2023/04/24 07:14:07;;;;;;;;;;;9.90;99.90;;;;;;5071194;28;21101;-68
2023/04/24 07:16:33;;;;;;;;;;;10.00;99.90;;;;;;5065130;28;19939;-68
2023/04/24 07:18:58;;;;;;;;;;;10.00;99.90;;;;;;5076608;28;19925;-68
2023/04/24 07:21:25;;;;;;;;;;;10.00;99.90;;;;;;5073155;28;19932;-68
2023/04/24 07:23:51;;;;;;;;;;;10.00;99.90;;;;;;5073162;28;19951;-68
2023/04/24 07:26:16;;;;;;;;;;;10.00;99.90;;;;;;5075789;28;20458;-68
2023/04/24 07:28:42;;;;;;;;;;;10.00;99.90;;;;;;5070900;28;20321;-68
2023/04/24 07:31:08;;;;;;;;;;;10.00;99.90;;;;;;5071261;28;19924;-68
2023/04/24 07:33:34;;;;;;;;;;;10.00;99.90;;;;;;5085728;28;19996;-68
2023/04/24 07:36:00;;;;;;;;;;;9.90;99.90;;;;;;5072706;28;19925;-68
2023/04/24 07:38:25;;;;;;;;;;;9.90;99.90;;;;;;5101063;28;19936;-68
2023/04/24 07:40:51;;;;;;;;;;;9.90;99.90;;;;;;5068493;28;19924;-68
2023/04/24 07:43:17;;;;;;;;;;;9.90;99.90;;;;;;5078150;28;19925;-68
2023/04/24 07:45:43;;;;;;;;;;;9.90;99.90;;;;;;5077921;28;19928;-68
2023/04/24 07:48:08;;;;;;;;;;;9.90;99.90;;;;;;5108861;28;19964;-68
2023/04/24 07:50:35;;;;;;;;;;;9.90;99.90;;;;;;5090652;28;19931;-68
2023/04/24 07:53:01;;;;;;;;;;;10.00;99.90;;;;;;5096137;28;19931;-68
2023/04/24 07:55:27;;;;;;;;;;;9.90;99.90;;;;;;5080137;28;19924;-68
2023/04/24 07:57:52;;;;;;;;;;;9.90;99.90;;;;;;5079811;28;20504;-68
2023/04/24 08:00:18;;;;;;;;;;;9.90;99.90;;;;;;5058962;28;20302;-68
2023/04/24 08:02:43;;;;;;;;;;;9.90;99.90;;;;;;5079577;28;20110;-68
2023/04/24 08:05:09;;;;;;;;;;;9.90;99.90;;;;;;5078374;28;19924;-68
2023/04/24 08:07:35;;;;;;;;;;;9.90;99.90;;;;;;5112039;27;19924;-68
2023/04/24 08:10:01;;;;;;;;;;;9.90;99.90;;;;;;5077332;28;19928;-69
2023/04/24 08:12:28;;;;;;;;;;;9.90;99.90;;;;;;5078584;28;20340;-68
2023/04/24 08:14:53;;;;;;;;;;;9.80;99.90;;;;;;5087382;28;19931;-68
2023/04/24 08:17:19;;;;;;;;;;;9.90;99.90;;;;;;5099165;28;19971;-68
2023/04/24 08:19:48;;;;;;;;;;;9.80;99.90;;;;;;5075857;28;19935;-69
2023/04/24 08:22:14;;;;;;;;;;;9.80;99.90;;;;;;5102157;28;19985;-68
2023/04/24 08:24:39;;;;;;;;;;;9.80;99.90;;;;;;5079661;28;19931;-68
2023/04/24 08:27:05;;;;;;;;;;;9.80;99.90;;;;;;5080101;28;19925;-68
2023/04/24 08:29:31;;;;;;;;;;;9.80;99.90;;;;;;5079252;28;20015;-68
2023/04/24 08:31:56;;;;;;;;;;;9.80;99.90;;;;;;5072105;28;20371;-69
2023/04/24 08:34:22;;;;;;;;;;;9.80;99.90;;;;;;5074089;28;20307;-74
2023/04/24 08:36:48;;;;;;;;;;;9.70;99.90;;;;;;5074548;28;19946;-74
2023/04/24 08:39:14;;;;;;;;;;;9.70;99.90;;;;;;5094604;28;19947;-74
2023/04/24 08:41:42;;;;;;;;;;;9.60;99.90;;;;;;5093970;28;19993;-74
2023/04/24 08:44:08;;;;;;;;;;;9.60;99.90;;;;;;5077003;28;19924;-74
2023/04/24 08:46:35;;;;;;;;;;;9.50;99.90;;;;;;5091930;28;19924;-74
2023/04/24 08:49:02;;;;;;;;;;;9.40;99.90;;;;;;5076102;28;19992;-75
2023/04/24 08:51:28;;;;;;;;;;;9.50;99.90;;;;;;5070911;28;19928;-75
2023/04/24 08:53:54;;;;;;;;;;;9.40;99.90;;;;;;5075121;28;19947;-75
2023/04/24 08:56:23;;;;;;;;;;;9.30;99.90;;;;;;5059658;28;20791;-75
2023/04/24 08:58:52;;;;;;;;;;;9.30;99.90;;;;;;5091234;28;19924;-76
2023/04/24 09:01:19;;;;;;;;;;;9.30;99.90;;;;;;5093555;28;19934;-74
2023/04/24 09:03:45;;;;;;;;;;;9.30;99.90;;;;;;5049628;28;19929;-75
2023/04/24 09:06:11;;;;;;;;;;;9.30;99.90;;;;;;5076327;28;19925;-75
2023/04/24 09:08:38;;;;;;;;;;;9.30;99.90;;;;;;5054392;28;19931;-75
2023/04/24 09:11:05;;;;;;;;;;;9.20;99.90;;;;;;5059725;28;19924;-75
2023/04/24 09:13:31;;;;;;;;;;;9.30;99.90;;;;;;5069100;28;20202;-75
2023/04/24 09:15:57;;;;;;;;;;;9.30;99.90;;;;;;5037506;28;19924;-75
2023/04/24 09:18:23;;;;;;;;;;;9.30;99.90;;;;;;5075542;28;19932;-75
2023/04/24 09:21:02;;;;;;;;;;;9.30;99.90;;;;;;5074534;28;19960;-74
2023/04/24 09:23:31;;;;;;;;;;;9.30;99.90;;;;;;5061261;28;19932;-75
2023/04/24 09:25:58;;;;;;;;;;;9.30;99.90;;;;;;5093794;28;19996;-75
2023/04/24 09:28:31;;;;;;;;;;;9.30;99.90;;;;;;5047751;28;19924;-75
2023/04/24 09:31:04;;;;;;;;;;;9.30;99.90;;;;;;5078296;28;19932;-75
2023/04/24 09:33:29;;;;;;;;;;;9.30;99.90;;;;;;5094325;28;20000;-75
2023/04/24 09:35:55;;;;;;;;;;;9.30;99.90;;;;;;5060644;28;19952;-75
2023/04/24 09:38:30;;;;;;;;;;;9.30;99.90;;;;;;5076427;28;19931;-75
2023/04/24 09:40:58;;;;;;;;;;;9.30;99.90;;;;;;5093960;28;19932;-75
2023/04/24 09:43:26;;;;;;;;;;;9.30;99.90;;;;;;5081610;28;19925;-75
2023/04/24 09:45:55;;;;;;;;;;;9.30;99.90;;;;;;5079720;28;19928;-75
2023/04/24 09:48:29;;;;;;;;;;;9.30;99.90;;;;;;5082304;28;19974;-75
2023/04/24 09:50:55;;;;;;;;;;;9.30;99.90;;;;;;5075654;28;19981;-75
2023/04/24 09:53:24;;;;;;;;;;;9.30;99.90;;;;;;5079550;28;19924;-76
2023/04/24 09:55:50;;;;;;;;;;;9.40;99.90;;;;;;5061112;28;19925;-75
2023/04/24 09:58:15;;;;;;;;;;;9.40;99.90;;;;;;5075217;28;19932;-75
2023/04/24 10:00:41;;;;;;;;;;;9.50;99.90;;;;;;5075556;28;19925;-76
2023/04/24 10:03:07;;;;;;;;;;;9.60;99.90;;;;;;5073692;28;20023;-76
2023/04/24 10:05:37;;;;;;;;;;;9.70;99.90;;;;;;5088999;28;19968;-77
2023/04/24 10:08:04;;;;;;;;;;;9.80;99.90;;;;;;5076567;28;19928;-77
2023/04/24 10:10:30;;;;;;;;;;;9.80;99.90;;;;;;5085429;28;20348;-77
2023/04/24 10:12:56;;;;;;;;;;;9.90;99.90;;;;;;5056979;28;20272;-78
2023/04/24 10:15:22;;;;;;;;;;;9.90;99.90;;;;;;5092577;28;19928;-78
2023/04/24 10:17:52;;;;;;;;;;;9.90;99.90;;;;;;5092328;28;19935;-78
2023/04/24 10:20:18;;;;;;;;;;;9.80;99.90;;;;;;5091118;28;19929;-78
2023/04/24 10:22:47;;;;;;;;;;;9.70;99.90;;;;;;5092763;28;19924;-77
2023/04/24 10:25:14;;;;;;;;;;;9.60;99.90;;;;;;5073786;28;19925;-78
2023/04/24 10:27:40;;;;;;;;;;;9.40;99.90;;;;;;5069787;28;19925;-78
2023/04/24 10:30:06;;;;;;;;;;;9.30;99.90;;;;;;5091465;28;20298;-78
2023/04/24 10:32:32;;;;;;;;;;;9.30;99.90;;;;;;5091229;28;19950;-79
2023/04/24 10:34:57;;;;;;;;;;;9.20;99.90;;;;;;5075571;28;19925;-79
2023/04/24 10:37:23;;;;;;;;;;;9.20;99.90;;;;;;5090357;28;19971;-79
2023/04/24 10:39:51;;;;;;;;;;;9.10;99.90;;;;;;5091414;28;20007;-78
2023/04/24 10:42:16;;;;;;;;;;;9.10;99.90;;;;;;5091264;28;19940;-79
2023/04/24 10:44:42;;;;;;;;;;;9.10;99.90;;;;;;5092657;28;19931;-78
2023/04/24 10:47:12;;;;;;;;;;;9.10;99.90;;;;;;5075015;28;19924;-78
2023/04/24 10:49:38;;;;;;;;;;;9.10;99.90;;;;;;5057392;28;20285;-78
2023/04/24 10:52:06;;;;;;;;;;;9.20;99.90;;;;;;5042426;28;19924;-79
2023/04/24 10:54:36;;;;;;;;;;;9.30;99.90;;;;;;5091962;28;19924;-79
2023/04/24 10:57:31;;;;;;;;;;;9.30;99.90;;;;;;5075001;28;19925;-78
2023/04/24 11:00:15;;;;;;;;;;;9.40;99.90;;;;;;5057731;28;20568;-78
2023/04/24 11:02:48;;;;;;;;;;;9.40;99.90;;;;;;5105400;28;19929;-78
2023/04/24 11:05:17;;;;;;;;;;;9.50;99.90;;;;;;5071398;28;19925;-78
2023/04/24 11:08:02;;;;;;;;;;;9.60;99.90;;;;;;5041526;28;19993;-78
2023/04/24 11:10:27;;;;;;;;;;;9.70;99.90;;;;;;5090203;28;19924;-78
2023/04/24 11:12:53;;;;;;;;;;;9.80;99.90;;;;;;5073909;28;19924;-78
2023/04/24 11:15:19;;;;;;;;;;;10.00;99.90;;;;;;5076475;28;19924;-78
2023/04/24 11:17:45;;;;;;;;;;;10.00;99.90;;;;;;5095299;28;19934;-77
2023/04/24 11:20:11;;;;;;;;;;;10.10;99.90;;;;;;5061782;28;19984;-77
2023/04/24 11:22:39;;;;;;;;;;;10.10;99.90;;;;;;5094477;28;19939;-77
2023/04/24 11:25:06;;;;;;;;;;;10.10;99.90;;;;;;5078758;28;19925;-78
2023/04/24 11:27:39;;;;;;;;;;;10.10;99.90;;;;;;5081657;28;19928;-77
2023/04/24 11:30:05;;;;;;;;;;;10.00;99.90;;;;;;5066556;28;19971;-77
2023/04/24 11:32:38;;;;;;;;;;;10.00;99.90;;;;;;5067902;28;19978;-77
2023/04/24 11:35:34;;;;;;;;;;;9.90;99.90;;;;;;5095388;28;19967;-77
2023/04/24 11:38:02;;;;;;;;;;;9.80;99.90;;;;;;5066531;28;19980;-77
2023/04/24 11:40:28;;;;;;;;;;;9.70;99.90;;;;;;5095045;28;20420;-78
2023/04/24 11:42:57;;;;;;;;;;;9.70;99.90;;;;;;5078893;28;19928;-77
2023/04/24 11:45:24;;;;;;;;;;;9.80;99.90;;;;;;5079325;28;19925;-77
2023/04/24 11:47:50;;;;;;;;;;;9.80;99.90;;;;;;5095690;28;19928;-77
2023/04/24 11:50:16;;;;;;;;;;;10.00;99.90;;;;;;5061745;28;19947;-77
2023/04/24 11:52:43;;;;;;;;;;;10.10;99.90;;;;;;5094683;28;19928;-77
2023/04/24 11:55:14;;;;;;;;;;;10.30;99.90;;;;;;5087278;28;19931;-77
2023/04/24 11:57:47;;;;;;;;;;;10.40;99.90;;;;;;5060548;28;19968;-77
2023/04/24 12:00:16;;;;;;;;;;;10.40;99.90;;;;;;5060702;28;19925;-77
2023/04/24 12:02:42;;;;;;;;;;;10.30;99.90;;;;;;5080105;28;19924;-77
2023/04/24 12:05:08;;;;;;;;;;;10.20;99.90;;;;;;5064249;28;19936;-77
2023/04/24 12:07:43;;;;;;;;;;;10.20;99.90;;;;;;5082198;28;20026;-77
2023/04/24 12:10:09;;;;;;;;;;;10.10;99.90;;;;;;5076828;28;19936;-77
2023/04/24 12:12:34;;;;;;;;;;;10.20;99.90;;;;;;5076307;28;19924;-77
2023/04/24 12:15:01;;;;;;;;;;;10.10;99.90;;;;;;5086753;28;19928;-77
2023/04/24 12:17:30;;;;;;;;;;;10.10;99.90;;;;;;5070535;28;19939;-77
2023/04/24 12:20:04;;;;;;;;;;;10.10;99.90;;;;;;5063797;28;19928;-77
2023/04/24 12:22:48;;;;;;;;;;;10.10;99.90;;;;;;5061027;28;19948;-77
2023/04/24 12:25:18;;;;;;;;;;;10.20;99.90;;;;;;5057378;28;19960;-77
2023/04/24 12:27:44;;;;;;;;;;;10.30;99.90;;;;;;5091369;28;19929;-78
2023/04/24 12:30:11;;;;;;;;;;;10.30;99.90;;;;;;5094077;28;19924;-77
2023/04/24 12:32:41;;;;;;;;;;;10.20;99.90;;;;;;5081349;28;19924;-78
2023/04/24 12:35:06;;;;;;;;;;;10.20;99.90;;;;;;5060801;28;19955;-77
2023/04/24 12:37:33;;;;;;;;;;;10.10;99.90;;;;;;5094118;28;19924;-77
2023/04/24 12:39:59;;;;;;;;;;;9.90;99.90;;;;;;5075868;28;20483;-77
2023/04/24 12:42:28;;;;;;;;;;;9.90;99.90;;;;;;5093373;28;19925;-77
2023/04/24 12:45:00;;;;;;;;;;;9.90;99.90;;;;;;5077753;28;19929;-78
2023/04/24 12:47:26;;;;;;;;;;;10.00;99.90;;;;;;5076410;28;19930;-77
2023/04/24 12:49:52;;;;;;;;;;;10.10;99.90;;;;;;5071041;28;19928;-78
2023/04/24 12:52:19;;;;;;;;;;;10.10;99.90;;;;;;5068193;28;19930;-78
2023/04/24 12:54:45;;;;;;;;;;;10.10;99.90;;;;;;5092240;28;19925;-77
2023/04/24 12:57:11;;;;;;;;;;;10.20;99.90;;;;;;5077318;28;19932;-77
2023/04/24 12:59:36;;;;;;;;;;;10.20;99.90;;;;;;5070340;28;19944;-78
2023/04/24 13:02:02;;;;;;;;;;;10.20;99.90;;;;;;5058751;28;19982;-78
2023/04/24 13:04:28;;;;;;;;;;;10.20;99.90;;;;;;5093919;28;19980;-78
2023/04/24 13:06:53;;;;;;;;;;;10.20;99.90;;;;;;5076697;28;20014;-77
2023/04/24 13:09:19;;;;;;;;;;;10.10;99.90;;;;;;5044973;28;19928;-77
2023/04/24 13:11:44;;;;;;;;;;;10.10;99.90;;;;;;5089008;28;19988;-77
2023/04/24 13:14:10;;;;;;;;;;;10.00;99.90;;;;;;5073474;28;19935;-77
2023/04/24 13:16:35;;;;;;;;;;;10.00;99.90;;;;;;5079963;28;20598;-78
2023/04/24 13:19:01;;;;;;;;;;;9.90;99.90;;;;;;5094518;28;19935;-77
2023/04/24 13:21:27;;;;;;;;;;;9.80;99.90;;;;;;5089095;28;19932;-77
2023/04/24 13:23:52;;;;;;;;;;;9.70;99.90;;;;;;5077680;28;19974;-77
2023/04/24 13:26:18;;;;;;;;;;;9.70;99.90;;;;;;5078347;28;19929;-77
2023/04/24 13:28:44;;;;;;;;;;;9.60;99.90;;;;;;5077363;28;19924;-77
2023/04/24 13:31:09;;;;;;;;;;;9.60;99.90;;;;;;5080606;28;20439;-77
2023/04/24 13:33:35;;;;;;;;;;;9.50;99.90;;;;;;5062803;28;20013;-78
2023/04/24 13:36:01;;;;;;;;;;;9.40;99.90;;;;;;5074771;28;19986;-78
2023/04/24 13:38:26;;;;;;;;;;;9.40;99.90;;;;;;5074959;28;19933;-77
2023/04/24 13:40:52;;;;;;;;;;;9.50;99.90;;;;;;5094371;28;19924;-77
2023/04/24 13:43:18;;;;;;;;;;;9.50;99.90;;;;;;5077339;28;19971;-77
2023/04/24 13:45:43;;;;;;;;;;;9.60;99.90;;;;;;5077065;28;20280;-77
2023/04/24 13:48:09;;;;;;;;;;;9.60;99.90;;;;;;5094434;28;19925;-77
2023/04/24 13:50:34;;;;;;;;;;;9.70;99.90;;;;;;5077049;28;19925;-77
2023/04/24 13:53:01;;;;;;;;;;;9.70;99.90;;;;;;5076682;28;19932;-78
2023/04/24 13:55:26;;;;;;;;;;;9.70;99.90;;;;;;5060829;28;19928;-77
2023/04/24 13:57:54;;;;;;;;;;;9.70;99.90;;;;;;5090955;28;19947;-76
2023/04/24 14:00:20;;;;;;;;;;;9.70;99.90;;;;;;5091049;28;19979;-77
2023/04/24 14:02:46;;;;;;;;;;;9.60;99.90;;;;;;5086737;28;19933;-77
2023/04/24 14:05:13;;;;;;;;;;;9.60;99.90;;;;;;5064409;28;19982;-77
2023/04/24 14:07:39;;;;;;;;;;;9.50;99.90;;;;;;5042008;28;19983;-77
2023/04/24 14:10:05;;;;;;;;;;;9.40;99.90;;;;;;5091742;28;19924;-77
2023/04/24 14:12:31;;;;;;;;;;;9.30;99.90;;;;;;5058226;28;19931;-77
2023/04/24 14:14:56;;;;;;;;;;;9.20;99.90;;;;;;5059999;28;20631;-78
2023/04/24 14:17:22;;;;;;;;;;;9.10;99.90;;;;;;5076076;28;20372;-77
2023/04/24 14:19:47;;;;;;;;;;;9.10;99.90;;;;;;5092060;28;19928;-77
2023/04/24 14:22:13;;;;;;;;;;;9.10;99.90;;;;;;5091612;28;19928;-78